sensor_id;sensor_type;location;lat;lon;timestamp;P1;durP1;ratioP1;P2;durP2;ratioP2
53871;SDS011;39787;53.174;5.798;2023-08-24T00:00:43;14.70;;;10.10;;
53871;SDS011;39787;53.174;5.798;2023-08-24T00:01:43;16.42;;;9.40;;
53871;SDS011;39787;53.174;5.798;2023-08-24T00:02:44;11.43;;;9.60;;
53871;SDS011;39787;53.174;5.798;2023-08-24T00:03:44;9.70;;;8.50;;
53871;SDS011;39787;53.174;5.798;2023-08-24T00:04:45;13.93;;;8.97;;
53871;SDS011;39787;53.174;5.798;2023-08-24T00:05:45;12.10;;;9.37;;
53871;SDS011;39787;53.174;5.798;2023-08-24T00:07:47;14.18;;;7.55;;
53871;SDS011;39787;53.174;5.798;2023-08-24T00:08:48;10.93;;;6.80;;
53871;SDS011;39787;53.174;5.798;2023-08-24T00:09:48;8.57;;;6.87;;
53871;SDS011;39787;53.174;5.798;2023-08-24T00:10:52;6.47;;;5.88;;
53871;SDS011;39787;53.174;5.798;2023-08-24T00:11:53;12.90;;;8.60;;
53871;SDS011;39787;53.174;5.798;2023-08-24T00:12:53;9.13;;;7.30;;
53871;SDS011;39787;53.174;5.798;2023-08-24T00:13:53;10.77;;;7.50;;
53871;SDS011;39787;53.174;5.798;2023-08-24T00:14:54;14.70;;;7.40;;
53871;SDS011;39787;53.174;5.798;2023-08-24T00:15:54;9.03;;;7.00;;
53871;SDS011;39787;53.174;5.798;2023-08-24T00:16:55;10.73;;;7.50;;
53871;SDS011;39787;53.174;5.798;2023-08-24T00:17:55;9.23;;;6.60;;
53871;SDS011;39787;53.174;5.798;2023-08-24T00:18:56;9.73;;;6.27;;
53871;SDS011;39787;53.174;5.798;2023-08-24T00:19:56;11.60;;;6.63;;
53871;SDS011;39787;53.174;5.798;2023-08-24T00:20:57;10.18;;;6.00;;
53871;SDS011;39787;53.174;5.798;2023-08-24T00:21:58;12.20;;;6.90;;
53871;SDS011;39787;53.174;5.798;2023-08-24T00:22:58;10.80;;;7.23;;
53871;SDS011;39787;53.174;5.798;2023-08-24T00:23:59;9.88;;;6.88;;
53871;SDS011;39787;53.174;5.798;2023-08-24T00:25:00;8.63;;;6.50;;
53871;SDS011;39787;53.174;5.798;2023-08-24T00:26:00;11.70;;;6.77;;
53871;SDS011;39787;53.174;5.798;2023-08-24T00:27:01;9.07;;;6.67;;
53871;SDS011;39787;53.174;5.798;2023-08-24T00:28:01;10.47;;;6.47;;
53871;SDS011;39787;53.174;5.798;2023-08-24T00:29:02;7.03;;;5.67;;
53871;SDS011;39787;53.174;5.798;2023-08-24T00:30:03;7.80;;;5.40;;
53871;SDS011;39787;53.174;5.798;2023-08-24T00:31:04;6.55;;;5.63;;
53871;SDS011;39787;53.174;5.798;2023-08-24T00:32:05;6.00;;;5.13;;
53871;SDS011;39787;53.174;5.798;2023-08-24T00:33:05;15.30;;;6.23;;
53871;SDS011;39787;53.174;5.798;2023-08-24T00:34:06;7.17;;;5.47;;
53871;SDS011;39787;53.174;5.798;2023-08-24T00:35:08;6.23;;;5.27;;
53871;SDS011;39787;53.174;5.798;2023-08-24T00:36:09;10.75;;;5.50;;
53871;SDS011;39787;53.174;5.798;2023-08-24T00:37:09;6.43;;;4.53;;
53871;SDS011;39787;53.174;5.798;2023-08-24T00:38:09;4.67;;;4.30;;
53871;SDS011;39787;53.174;5.798;2023-08-24T00:39:10;7.30;;;4.50;;
53871;SDS011;39787;53.174;5.798;2023-08-24T00:40:11;5.17;;;4.00;;
53871;SDS011;39787;53.174;5.798;2023-08-24T00:41:12;6.37;;;4.13;;
53871;SDS011;39787;53.174;5.798;2023-08-24T00:42:12;4.95;;;4.35;;
53871;SDS011;39787;53.174;5.798;2023-08-24T00:43:13;6.83;;;4.70;;
53871;SDS011;39787;53.174;5.798;2023-08-24T00:44:13;4.67;;;4.30;;
53871;SDS011;39787;53.174;5.798;2023-08-24T00:45:14;6.23;;;4.63;;
53871;SDS011;39787;53.174;5.798;2023-08-24T00:46:14;4.63;;;4.23;;
53871;SDS011;39787;53.174;5.798;2023-08-24T00:47:15;7.00;;;4.60;;
53871;SDS011;39787;53.174;5.798;2023-08-24T00:48:17;6.70;;;5.18;;
53871;SDS011;39787;53.174;5.798;2023-08-24T00:50:18;6.38;;;5.45;;
53871;SDS011;39787;53.174;5.798;2023-08-24T00:51:20;7.32;;;5.07;;
53871;SDS011;39787;53.174;5.798;2023-08-24T00:52:20;11.27;;;5.90;;
53871;SDS011;39787;53.174;5.798;2023-08-24T00:53:21;7.53;;;5.90;;
53871;SDS011;39787;53.174;5.798;2023-08-24T00:54:24;8.57;;;6.35;;
53871;SDS011;39787;53.174;5.798;2023-08-24T00:55:25;7.20;;;6.07;;
53871;SDS011;39787;53.174;5.798;2023-08-24T00:56:26;8.07;;;6.60;;
53871;SDS011;39787;53.174;5.798;2023-08-24T00:57:27;9.23;;;6.83;;
53871;SDS011;39787;53.174;5.798;2023-08-24T00:58:28;8.13;;;6.75;;
53871;SDS011;39787;53.174;5.798;2023-08-24T00:59:28;9.70;;;7.40;;
53871;SDS011;39787;53.174;5.798;2023-08-24T01:00:29;9.50;;;7.67;;
53871;SDS011;39787;53.174;5.798;2023-08-24T01:01:30;8.80;;;7.03;;
53871;SDS011;39787;53.174;5.798;2023-08-24T01:02:30;13.17;;;8.40;;
53871;SDS011;39787;53.174;5.798;2023-08-24T01:03:31;14.73;;;8.48;;
53871;SDS011;39787;53.174;5.798;2023-08-24T01:04:32;11.40;;;9.27;;
53871;SDS011;39787;53.174;5.798;2023-08-24T01:05:32;10.40;;;8.10;;
53871;SDS011;39787;53.174;5.798;2023-08-24T01:06:33;9.00;;;8.10;;
53871;SDS011;39787;53.174;5.798;2023-08-24T01:07:34;11.10;;;8.00;;
53871;SDS011;39787;53.174;5.798;2023-08-24T01:08:37;12.93;;;8.80;;
53871;SDS011;39787;53.174;5.798;2023-08-24T01:09:37;14.83;;;8.73;;
53871;SDS011;39787;53.174;5.798;2023-08-24T01:10:44;15.00;;;8.70;;
53871;SDS011;39787;53.174;5.798;2023-08-24T01:13:06;10.10;;;7.93;;
53871;SDS011;39787;53.174;5.798;2023-08-24T01:14:20;9.95;;;7.72;;
53871;SDS011;39787;53.174;5.798;2023-08-24T01:16:45;9.32;;;8.25;;
53871;SDS011;39787;53.174;5.798;2023-08-24T01:17:46;13.50;;;7.72;;
53871;SDS011;39787;53.174;5.798;2023-08-24T01:18:49;11.48;;;8.48;;
53871;SDS011;39787;53.174;5.798;2023-08-24T01:19:51;18.30;;;9.05;;
53871;SDS011;39787;53.174;5.798;2023-08-24T01:20:51;12.60;;;9.43;;
53871;SDS011;39787;53.174;5.798;2023-08-24T01:21:52;11.63;;;9.00;;
53871;SDS011;39787;53.174;5.798;2023-08-24T01:25:40;15.93;;;9.55;;
53871;SDS011;39787;53.174;5.798;2023-08-24T01:26:47;18.25;;;9.40;;
53871;SDS011;39787;53.174;5.798;2023-08-24T01:27:48;15.13;;;9.50;;
53871;SDS011;39787;53.174;5.798;2023-08-24T01:28:50;17.80;;;9.80;;
53871;SDS011;39787;53.174;5.798;2023-08-24T01:29:50;17.87;;;9.00;;
53871;SDS011;39787;53.174;5.798;2023-08-24T01:31:52;12.90;;;8.95;;
53871;SDS011;39787;53.174;5.798;2023-08-24T01:32:53;18.13;;;9.02;;
53871;SDS011;39787;53.174;5.798;2023-08-24T01:33:54;13.30;;;9.67;;
53871;SDS011;39787;53.174;5.798;2023-08-24T01:34:54;16.60;;;9.37;;
53871;SDS011;39787;53.174;5.798;2023-08-24T01:35:54;15.27;;;9.50;;
53871;SDS011;39787;53.174;5.798;2023-08-24T01:36:55;18.63;;;9.73;;
53871;SDS011;39787;53.174;5.798;2023-08-24T01:37:55;15.47;;;9.40;;
53871;SDS011;39787;53.174;5.798;2023-08-24T01:38:58;18.67;;;8.97;;
53871;SDS011;39787;53.174;5.798;2023-08-24T01:40:27;13.57;;;9.30;;
53871;SDS011;39787;53.174;5.798;2023-08-24T01:41:32;18.95;;;9.77;;
53871;SDS011;39787;53.174;5.798;2023-08-24T01:42:37;13.35;;;8.80;;
53871;SDS011;39787;53.174;5.798;2023-08-24T01:43:59;15.80;;;9.80;;
53871;SDS011;39787;53.174;5.798;2023-08-24T01:45:01;17.90;;;8.73;;
53871;SDS011;39787;53.174;5.798;2023-08-24T01:46:05;14.52;;;8.77;;
53871;SDS011;39787;53.174;5.798;2023-08-24T01:47:07;18.77;;;10.00;;
53871;SDS011;39787;53.174;5.798;2023-08-24T01:48:10;17.05;;;9.68;;
53871;SDS011;39787;53.174;5.798;2023-08-24T01:49:13;13.20;;;9.45;;
53871;SDS011;39787;53.174;5.798;2023-08-24T01:50:15;13.65;;;9.57;;
53871;SDS011;39787;53.174;5.798;2023-08-24T01:51:16;13.15;;;9.35;;
53871;SDS011;39787;53.174;5.798;2023-08-24T01:52:17;21.08;;;10.38;;
53871;SDS011;39787;53.174;5.798;2023-08-24T01:54:19;14.63;;;8.82;;
53871;SDS011;39787;53.174;5.798;2023-08-24T01:55:20;15.23;;;8.87;;
53871;SDS011;39787;53.174;5.798;2023-08-24T01:56:20;12.50;;;8.40;;
53871;SDS011;39787;53.174;5.798;2023-08-24T01:57:21;14.10;;;8.67;;
53871;SDS011;39787;53.174;5.798;2023-08-24T01:58:21;15.13;;;9.10;;
53871;SDS011;39787;53.174;5.798;2023-08-24T01:59:22;10.30;;;8.17;;
53871;SDS011;39787;53.174;5.798;2023-08-24T02:00:22;16.87;;;9.77;;
53871;SDS011;39787;53.174;5.798;2023-08-24T02:01:23;12.53;;;8.77;;
53871;SDS011;39787;53.174;5.798;2023-08-24T02:02:25;16.67;;;8.90;;
53871;SDS011;39787;53.174;5.798;2023-08-24T02:03:25;15.70;;;8.63;;
53871;SDS011;39787;53.174;5.798;2023-08-24T02:04:26;13.57;;;9.13;;
53871;SDS011;39787;53.174;5.798;2023-08-24T02:05:26;13.90;;;8.50;;
53871;SDS011;39787;53.174;5.798;2023-08-24T02:06:27;14.97;;;8.87;;
53871;SDS011;39787;53.174;5.798;2023-08-24T02:07:27;14.00;;;8.30;;
53871;SDS011;39787;53.174;5.798;2023-08-24T02:08:28;12.07;;;7.30;;
53871;SDS011;39787;53.174;5.798;2023-08-24T02:09:28;14.27;;;7.73;;
53871;SDS011;39787;53.174;5.798;2023-08-24T02:10:29;11.43;;;7.70;;
53871;SDS011;39787;53.174;5.798;2023-08-24T02:11:29;9.47;;;7.63;;
53871;SDS011;39787;53.174;5.798;2023-08-24T02:12:30;14.77;;;7.90;;
53871;SDS011;39787;53.174;5.798;2023-08-24T02:13:30;13.73;;;7.83;;
53871;SDS011;39787;53.174;5.798;2023-08-24T02:14:31;13.67;;;8.60;;
53871;SDS011;39787;53.174;5.798;2023-08-24T02:15:31;15.03;;;9.07;;
53871;SDS011;39787;53.174;5.798;2023-08-24T02:16:32;11.60;;;8.53;;
53871;SDS011;39787;53.174;5.798;2023-08-24T02:17:32;15.80;;;9.63;;
53871;SDS011;39787;53.174;5.798;2023-08-24T02:18:33;15.20;;;8.60;;
53871;SDS011;39787;53.174;5.798;2023-08-24T02:19:33;14.47;;;8.73;;
53871;SDS011;39787;53.174;5.798;2023-08-24T02:20:35;14.17;;;8.93;;
53871;SDS011;39787;53.174;5.798;2023-08-24T02:21:36;18.17;;;9.07;;
53871;SDS011;39787;53.174;5.798;2023-08-24T02:22:37;15.43;;;8.87;;
53871;SDS011;39787;53.174;5.798;2023-08-24T02:23:38;18.13;;;9.50;;
53871;SDS011;39787;53.174;5.798;2023-08-24T02:24:38;13.15;;;8.88;;
53871;SDS011;39787;53.174;5.798;2023-08-24T02:25:41;14.07;;;8.90;;
53871;SDS011;39787;53.174;5.798;2023-08-24T02:26:42;19.90;;;8.60;;
53871;SDS011;39787;53.174;5.798;2023-08-24T02:27:43;12.10;;;8.97;;
53871;SDS011;39787;53.174;5.798;2023-08-24T02:28:43;12.87;;;8.83;;
53871;SDS011;39787;53.174;5.798;2023-08-24T02:29:43;17.73;;;9.10;;
53871;SDS011;39787;53.174;5.798;2023-08-24T02:30:44;14.77;;;8.87;;
53871;SDS011;39787;53.174;5.798;2023-08-24T02:31:44;12.73;;;8.40;;
53871;SDS011;39787;53.174;5.798;2023-08-24T02:32:45;15.73;;;8.73;;
53871;SDS011;39787;53.174;5.798;2023-08-24T02:33:45;14.63;;;9.03;;
53871;SDS011;39787;53.174;5.798;2023-08-24T02:34:46;12.37;;;8.80;;
53871;SDS011;39787;53.174;5.798;2023-08-24T02:35:47;14.40;;;8.60;;
53871;SDS011;39787;53.174;5.798;2023-08-24T02:36:47;15.02;;;8.48;;
53871;SDS011;39787;53.174;5.798;2023-08-24T02:37:48;9.93;;;8.20;;
53871;SDS011;39787;53.174;5.798;2023-08-24T02:38:48;12.70;;;8.80;;
53871;SDS011;39787;53.174;5.798;2023-08-24T02:39:49;17.60;;;8.87;;
53871;SDS011;39787;53.174;5.798;2023-08-24T02:40:49;15.33;;;8.10;;
53871;SDS011;39787;53.174;5.798;2023-08-24T02:41:59;10.00;;;8.20;;
53871;SDS011;39787;53.174;5.798;2023-08-24T02:43:00;16.90;;;8.97;;
53871;SDS011;39787;53.174;5.798;2023-08-24T02:44:00;13.10;;;8.47;;
53871;SDS011;39787;53.174;5.798;2023-08-24T02:45:01;13.98;;;8.35;;
53871;SDS011;39787;53.174;5.798;2023-08-24T02:46:03;16.63;;;8.45;;
53871;SDS011;39787;53.174;5.798;2023-08-24T02:47:05;12.18;;;8.68;;
53871;SDS011;39787;53.174;5.798;2023-08-24T02:48:06;15.87;;;9.00;;
53871;SDS011;39787;53.174;5.798;2023-08-24T02:49:06;13.53;;;9.13;;
53871;SDS011;39787;53.174;5.798;2023-08-24T02:50:07;11.30;;;9.37;;
53871;SDS011;39787;53.174;5.798;2023-08-24T02:51:07;18.55;;;9.40;;
53871;SDS011;39787;53.174;5.798;2023-08-24T02:52:08;14.83;;;8.50;;
53871;SDS011;39787;53.174;5.798;2023-08-24T02:53:08;11.93;;;8.27;;
53871;SDS011;39787;53.174;5.798;2023-08-24T02:54:09;11.80;;;8.00;;
53871;SDS011;39787;53.174;5.798;2023-08-24T02:55:09;15.50;;;9.07;;
53871;SDS011;39787;53.174;5.798;2023-08-24T02:56:10;10.87;;;8.77;;
53871;SDS011;39787;53.174;5.798;2023-08-24T02:57:10;14.10;;;8.10;;
53871;SDS011;39787;53.174;5.798;2023-08-24T02:58:11;13.10;;;8.10;;
53871;SDS011;39787;53.174;5.798;2023-08-24T02:59:11;13.90;;;8.73;;
53871;SDS011;39787;53.174;5.798;2023-08-24T03:00:12;13.20;;;8.23;;
53871;SDS011;39787;53.174;5.798;2023-08-24T03:01:12;10.87;;;7.77;;
53871;SDS011;39787;53.174;5.798;2023-08-24T03:02:13;13.17;;;8.27;;
53871;SDS011;39787;53.174;5.798;2023-08-24T03:03:13;9.47;;;7.93;;
53871;SDS011;39787;53.174;5.798;2023-08-24T03:04:14;12.23;;;7.55;;
53871;SDS011;39787;53.174;5.798;2023-08-24T03:05:15;11.20;;;7.63;;
53871;SDS011;39787;53.174;5.798;2023-08-24T03:06:15;12.63;;;8.17;;
53871;SDS011;39787;53.174;5.798;2023-08-24T03:07:16;12.60;;;7.87;;
53871;SDS011;39787;53.174;5.798;2023-08-24T03:08:16;16.43;;;8.27;;
53871;SDS011;39787;53.174;5.798;2023-08-24T03:09:17;11.17;;;8.00;;
53871;SDS011;39787;53.174;5.798;2023-08-24T03:10:17;10.83;;;7.70;;
53871;SDS011;39787;53.174;5.798;2023-08-24T03:11:18;13.03;;;8.07;;
53871;SDS011;39787;53.174;5.798;2023-08-24T03:12:18;8.33;;;6.70;;
53871;SDS011;39787;53.174;5.798;2023-08-24T03:13:18;15.27;;;8.07;;
53871;SDS011;39787;53.174;5.798;2023-08-24T03:14:19;12.73;;;8.23;;
53871;SDS011;39787;53.174;5.798;2023-08-24T03:15:19;13.27;;;7.67;;
53871;SDS011;39787;53.174;5.798;2023-08-24T03:16:20;11.10;;;7.90;;
53871;SDS011;39787;53.174;5.798;2023-08-24T03:17:20;15.03;;;7.93;;
53871;SDS011;39787;53.174;5.798;2023-08-24T03:18:21;11.47;;;6.93;;
53871;SDS011;39787;53.174;5.798;2023-08-24T03:19:22;15.25;;;8.38;;
53871;SDS011;39787;53.174;5.798;2023-08-24T03:20:22;20.63;;;8.60;;
53871;SDS011;39787;53.174;5.798;2023-08-24T03:21:23;15.50;;;9.10;;
53871;SDS011;39787;53.174;5.798;2023-08-24T03:22:23;15.93;;;8.77;;
53871;SDS011;39787;53.174;5.798;2023-08-24T03:23:24;13.33;;;9.30;;
53871;SDS011;39787;53.174;5.798;2023-08-24T03:24:25;13.80;;;8.93;;
53871;SDS011;39787;53.174;5.798;2023-08-24T03:25:25;12.97;;;8.67;;
53871;SDS011;39787;53.174;5.798;2023-08-24T03:26:25;17.07;;;8.60;;
53871;SDS011;39787;53.174;5.798;2023-08-24T03:27:26;12.67;;;8.37;;
53871;SDS011;39787;53.174;5.798;2023-08-24T03:28:26;12.93;;;8.20;;
53871;SDS011;39787;53.174;5.798;2023-08-24T03:29:27;19.10;;;8.40;;
53871;SDS011;39787;53.174;5.798;2023-08-24T03:30:27;14.43;;;8.37;;
53871;SDS011;39787;53.174;5.798;2023-08-24T03:31:28;13.97;;;8.77;;
53871;SDS011;39787;53.174;5.798;2023-08-24T03:32:28;12.83;;;8.73;;
53871;SDS011;39787;53.174;5.798;2023-08-24T03:33:29;15.60;;;8.83;;
53871;SDS011;39787;53.174;5.798;2023-08-24T03:34:29;13.80;;;8.83;;
53871;SDS011;39787;53.174;5.798;2023-08-24T03:35:30;10.53;;;7.97;;
53871;SDS011;39787;53.174;5.798;2023-08-24T03:36:31;19.08;;;9.60;;
53871;SDS011;39787;53.174;5.798;2023-08-24T03:37:32;11.80;;;8.87;;
53871;SDS011;39787;53.174;5.798;2023-08-24T03:38:33;15.43;;;9.35;;
53871;SDS011;39787;53.174;5.798;2023-08-24T03:39:33;14.20;;;9.30;;
53871;SDS011;39787;53.174;5.798;2023-08-24T03:40:37;16.88;;;9.52;;
53871;SDS011;39787;53.174;5.798;2023-08-24T03:41:37;19.33;;;9.80;;
53871;SDS011;39787;53.174;5.798;2023-08-24T03:42:38;14.80;;;8.97;;
53871;SDS011;39787;53.174;5.798;2023-08-24T03:43:38;19.73;;;9.53;;
53871;SDS011;39787;53.174;5.798;2023-08-24T03:44:38;14.37;;;8.63;;
53871;SDS011;39787;53.174;5.798;2023-08-24T03:45:39;20.33;;;9.73;;
53871;SDS011;39787;53.174;5.798;2023-08-24T03:46:41;19.08;;;9.38;;
53871;SDS011;39787;53.174;5.798;2023-08-24T03:47:42;14.30;;;8.90;;
53871;SDS011;39787;53.174;5.798;2023-08-24T03:48:42;20.83;;;9.73;;
53871;SDS011;39787;53.174;5.798;2023-08-24T03:49:43;16.50;;;8.90;;
53871;SDS011;39787;53.174;5.798;2023-08-24T03:50:44;13.35;;;8.95;;
53871;SDS011;39787;53.174;5.798;2023-08-24T03:51:44;15.50;;;8.93;;
53871;SDS011;39787;53.174;5.798;2023-08-24T03:52:44;16.33;;;10.03;;
53871;SDS011;39787;53.174;5.798;2023-08-24T03:53:45;16.13;;;8.80;;
53871;SDS011;39787;53.174;5.798;2023-08-24T03:54:46;23.10;;;9.50;;
53871;SDS011;39787;53.174;5.798;2023-08-24T03:55:47;19.73;;;8.90;;
53871;SDS011;39787;53.174;5.798;2023-08-24T03:57:48;19.92;;;9.23;;
53871;SDS011;39787;53.174;5.798;2023-08-24T03:58:49;15.67;;;9.03;;
53871;SDS011;39787;53.174;5.798;2023-08-24T03:59:49;13.50;;;8.57;;
53871;SDS011;39787;53.174;5.798;2023-08-24T04:00:50;11.50;;;8.57;;
53871;SDS011;39787;53.174;5.798;2023-08-24T04:01:50;17.30;;;8.27;;
53871;SDS011;39787;53.174;5.798;2023-08-24T04:02:50;16.97;;;9.07;;
53871;SDS011;39787;53.174;5.798;2023-08-24T04:03:51;12.83;;;8.87;;
53871;SDS011;39787;53.174;5.798;2023-08-24T04:04:52;16.93;;;9.73;;
53871;SDS011;39787;53.174;5.798;2023-08-24T04:05:52;12.37;;;8.53;;
53871;SDS011;39787;53.174;5.798;2023-08-24T04:06:53;12.57;;;8.30;;
53871;SDS011;39787;53.174;5.798;2023-08-24T04:07:53;13.20;;;8.73;;
53871;SDS011;39787;53.174;5.798;2023-08-24T04:08:54;12.17;;;8.00;;
53871;SDS011;39787;53.174;5.798;2023-08-24T04:09:54;14.23;;;8.07;;
53871;SDS011;39787;53.174;5.798;2023-08-24T04:10:55;10.50;;;8.10;;
53871;SDS011;39787;53.174;5.798;2023-08-24T04:11:55;14.03;;;8.53;;
53871;SDS011;39787;53.174;5.798;2023-08-24T04:12:56;9.50;;;7.83;;
53871;SDS011;39787;53.174;5.798;2023-08-24T04:13:56;17.20;;;7.97;;
53871;SDS011;39787;53.174;5.798;2023-08-24T04:14:57;10.73;;;7.80;;
53871;SDS011;39787;53.174;5.798;2023-08-24T04:15:57;13.73;;;8.10;;
53871;SDS011;39787;53.174;5.798;2023-08-24T04:16:58;12.63;;;8.43;;
53871;SDS011;39787;53.174;5.798;2023-08-24T04:17:58;13.50;;;8.23;;
53871;SDS011;39787;53.174;5.798;2023-08-24T04:18:59;15.10;;;8.90;;
53871;SDS011;39787;53.174;5.798;2023-08-24T04:19:59;13.03;;;7.97;;
53871;SDS011;39787;53.174;5.798;2023-08-24T04:21:00;19.17;;;8.40;;
53871;SDS011;39787;53.174;5.798;2023-08-24T04:22:00;15.13;;;8.93;;
53871;SDS011;39787;53.174;5.798;2023-08-24T04:23:01;13.47;;;9.10;;
53871;SDS011;39787;53.174;5.798;2023-08-24T04:24:02;12.20;;;8.35;;
53871;SDS011;39787;53.174;5.798;2023-08-24T04:25:03;16.42;;;9.27;;
53871;SDS011;39787;53.174;5.798;2023-08-24T04:26:04;9.45;;;7.78;;
53871;SDS011;39787;53.174;5.798;2023-08-24T04:27:04;18.67;;;8.97;;
53871;SDS011;39787;53.174;5.798;2023-08-24T04:28:05;13.67;;;8.57;;
53871;SDS011;39787;53.174;5.798;2023-08-24T04:29:05;16.47;;;9.17;;
53871;SDS011;39787;53.174;5.798;2023-08-24T04:30:06;19.50;;;9.03;;
53871;SDS011;39787;53.174;5.798;2023-08-24T04:31:07;16.20;;;9.32;;
53871;SDS011;39787;53.174;5.798;2023-08-24T04:32:07;20.73;;;9.53;;
53871;SDS011;39787;53.174;5.798;2023-08-24T04:33:08;12.67;;;8.77;;
53871;SDS011;39787;53.174;5.798;2023-08-24T04:34:08;15.20;;;9.33;;
53871;SDS011;39787;53.174;5.798;2023-08-24T04:35:09;14.53;;;9.03;;
53871;SDS011;39787;53.174;5.798;2023-08-24T04:36:09;11.53;;;9.10;;
53871;SDS011;39787;53.174;5.798;2023-08-24T04:37:10;15.40;;;9.63;;
53871;SDS011;39787;53.174;5.798;2023-08-24T04:38:10;17.03;;;8.87;;
53871;SDS011;39787;53.174;5.798;2023-08-24T04:39:11;16.73;;;8.40;;
53871;SDS011;39787;53.174;5.798;2023-08-24T04:40:11;23.50;;;9.90;;
53871;SDS011;39787;53.174;5.798;2023-08-24T04:41:11;14.00;;;10.00;;
53871;SDS011;39787;53.174;5.798;2023-08-24T04:42:12;15.83;;;9.53;;
53871;SDS011;39787;53.174;5.798;2023-08-24T04:43:12;17.30;;;9.57;;
53871;SDS011;39787;53.174;5.798;2023-08-24T04:44:13;15.27;;;9.83;;
53871;SDS011;39787;53.174;5.798;2023-08-24T04:45:13;15.23;;;10.00;;
53871;SDS011;39787;53.174;5.798;2023-08-24T04:46:14;18.80;;;10.50;;
53871;SDS011;39787;53.174;5.798;2023-08-24T04:47:14;13.60;;;8.93;;
53871;SDS011;39787;53.174;5.798;2023-08-24T04:48:15;16.83;;;8.97;;
53871;SDS011;39787;53.174;5.798;2023-08-24T04:49:15;22.00;;;10.40;;
53871;SDS011;39787;53.174;5.798;2023-08-24T04:50:16;15.43;;;8.73;;
53871;SDS011;39787;53.174;5.798;2023-08-24T04:51:16;21.10;;;10.10;;
53871;SDS011;39787;53.174;5.798;2023-08-24T04:52:17;17.80;;;9.10;;
53871;SDS011;39787;53.174;5.798;2023-08-24T04:53:18;17.90;;;9.03;;
53871;SDS011;39787;53.174;5.798;2023-08-24T04:55:19;12.23;;;9.43;;
53871;SDS011;39787;53.174;5.798;2023-08-24T04:56:20;24.43;;;10.07;;
53871;SDS011;39787;53.174;5.798;2023-08-24T04:57:20;16.43;;;10.37;;
53871;SDS011;39787;53.174;5.798;2023-08-24T04:58:21;14.57;;;9.70;;
53871;SDS011;39787;53.174;5.798;2023-08-24T04:59:21;17.77;;;9.77;;
53871;SDS011;39787;53.174;5.798;2023-08-24T05:00:22;13.10;;;9.80;;
53871;SDS011;39787;53.174;5.798;2023-08-24T05:01:31;15.67;;;9.53;;
53871;SDS011;39787;53.174;5.798;2023-08-24T05:02:32;17.52;;;9.00;;
53871;SDS011;39787;53.174;5.798;2023-08-24T05:03:32;17.17;;;8.83;;
53871;SDS011;39787;53.174;5.798;2023-08-24T05:04:33;14.87;;;9.67;;
53871;SDS011;39787;53.174;5.798;2023-08-24T05:05:34;13.90;;;8.80;;
53871;SDS011;39787;53.174;5.798;2023-08-24T05:06:35;14.35;;;9.30;;
53871;SDS011;39787;53.174;5.798;2023-08-24T05:07:37;16.17;;;8.47;;
53871;SDS011;39787;53.174;5.798;2023-08-24T05:08:38;12.32;;;8.77;;
53871;SDS011;39787;53.174;5.798;2023-08-24T05:09:38;13.13;;;8.53;;
53871;SDS011;39787;53.174;5.798;2023-08-24T05:10:39;18.57;;;9.27;;
53871;SDS011;39787;53.174;5.798;2023-08-24T05:11:40;16.08;;;8.82;;
53871;SDS011;39787;53.174;5.798;2023-08-24T05:12:40;15.87;;;8.70;;
53871;SDS011;39787;53.174;5.798;2023-08-24T05:13:41;12.67;;;8.80;;
53871;SDS011;39787;53.174;5.798;2023-08-24T05:14:41;15.13;;;8.47;;
53871;SDS011;39787;53.174;5.798;2023-08-24T05:15:41;16.70;;;9.37;;
53871;SDS011;39787;53.174;5.798;2023-08-24T05:16:42;20.47;;;9.03;;
53871;SDS011;39787;53.174;5.798;2023-08-24T05:17:43;19.13;;;9.47;;
53871;SDS011;39787;53.174;5.798;2023-08-24T05:18:43;16.30;;;8.57;;
53871;SDS011;39787;53.174;5.798;2023-08-24T05:19:44;14.40;;;8.43;;
53871;SDS011;39787;53.174;5.798;2023-08-24T05:20:44;11.93;;;8.10;;
53871;SDS011;39787;53.174;5.798;2023-08-24T05:21:45;15.30;;;8.83;;
53871;SDS011;39787;53.174;5.798;2023-08-24T05:22:45;13.17;;;8.63;;
53871;SDS011;39787;53.174;5.798;2023-08-24T05:23:46;16.10;;;9.43;;
53871;SDS011;39787;53.174;5.798;2023-08-24T05:24:46;17.10;;;8.87;;
53871;SDS011;39787;53.174;5.798;2023-08-24T05:25:47;18.10;;;8.07;;
53871;SDS011;39787;53.174;5.798;2023-08-24T05:26:47;16.70;;;9.33;;
53871;SDS011;39787;53.174;5.798;2023-08-24T05:27:48;14.93;;;8.93;;
53871;SDS011;39787;53.174;5.798;2023-08-24T05:28:48;18.63;;;9.63;;
53871;SDS011;39787;53.174;5.798;2023-08-24T05:29:49;17.92;;;9.13;;
53871;SDS011;39787;53.174;5.798;2023-08-24T05:30:51;19.63;;;9.20;;
53871;SDS011;39787;53.174;5.798;2023-08-24T05:31:51;17.75;;;8.68;;
53871;SDS011;39787;53.174;5.798;2023-08-24T05:32:52;12.40;;;8.37;;
53871;SDS011;39787;53.174;5.798;2023-08-24T05:33:52;13.10;;;8.30;;
53871;SDS011;39787;53.174;5.798;2023-08-24T05:34:53;15.40;;;8.50;;
53871;SDS011;39787;53.174;5.798;2023-08-24T05:35:53;11.53;;;8.13;;
53871;SDS011;39787;53.174;5.798;2023-08-24T05:36:54;13.63;;;8.67;;
53871;SDS011;39787;53.174;5.798;2023-08-24T05:37:54;11.53;;;7.57;;
53871;SDS011;39787;53.174;5.798;2023-08-24T05:38:55;13.87;;;8.33;;
53871;SDS011;39787;53.174;5.798;2023-08-24T05:39:55;11.73;;;8.43;;
53871;SDS011;39787;53.174;5.798;2023-08-24T05:40:56;22.43;;;8.77;;
53871;SDS011;39787;53.174;5.798;2023-08-24T05:41:56;14.57;;;8.43;;
53871;SDS011;39787;53.174;5.798;2023-08-24T05:42:57;20.77;;;8.93;;
53871;SDS011;39787;53.174;5.798;2023-08-24T05:43:57;15.50;;;8.43;;
53871;SDS011;39787;53.174;5.798;2023-08-24T05:44:58;15.30;;;8.30;;
53871;SDS011;39787;53.174;5.798;2023-08-24T05:45:58;14.67;;;8.13;;
53871;SDS011;39787;53.174;5.798;2023-08-24T05:46:58;16.13;;;7.50;;
53871;SDS011;39787;53.174;5.798;2023-08-24T05:47:59;16.30;;;7.83;;
53871;SDS011;39787;53.174;5.798;2023-08-24T05:48:59;11.87;;;7.30;;
53871;SDS011;39787;53.174;5.798;2023-08-24T05:50:00;12.87;;;8.20;;
53871;SDS011;39787;53.174;5.798;2023-08-24T05:51:00;14.90;;;7.47;;
53871;SDS011;39787;53.174;5.798;2023-08-24T05:52:01;13.27;;;7.20;;
53871;SDS011;39787;53.174;5.798;2023-08-24T05:53:01;12.73;;;7.10;;
53871;SDS011;39787;53.174;5.798;2023-08-24T05:54:02;15.93;;;8.20;;
53871;SDS011;39787;53.174;5.798;2023-08-24T05:55:03;17.73;;;8.13;;
53871;SDS011;39787;53.174;5.798;2023-08-24T05:56:03;14.10;;;7.32;;
53871;SDS011;39787;53.174;5.798;2023-08-24T05:57:04;13.77;;;7.87;;
53871;SDS011;39787;53.174;5.798;2023-08-24T05:58:05;15.23;;;7.10;;
53871;SDS011;39787;53.174;5.798;2023-08-24T05:59:06;15.23;;;7.50;;
53871;SDS011;39787;53.174;5.798;2023-08-24T06:00:06;9.80;;;7.17;;
53871;SDS011;39787;53.174;5.798;2023-08-24T06:01:07;15.38;;;7.95;;
53871;SDS011;39787;53.174;5.798;2023-08-24T06:02:08;12.37;;;7.23;;
53871;SDS011;39787;53.174;5.798;2023-08-24T06:03:08;16.07;;;7.03;;
53871;SDS011;39787;53.174;5.798;2023-08-24T06:04:09;13.47;;;7.13;;
53871;SDS011;39787;53.174;5.798;2023-08-24T06:05:09;8.60;;;6.60;;
53871;SDS011;39787;53.174;5.798;2023-08-24T06:06:10;14.40;;;7.00;;
53871;SDS011;39787;53.174;5.798;2023-08-24T06:07:10;11.07;;;6.93;;
53871;SDS011;39787;53.174;5.798;2023-08-24T06:08:11;14.33;;;6.63;;
53871;SDS011;39787;53.174;5.798;2023-08-24T06:09:11;13.30;;;6.50;;
53871;SDS011;39787;53.174;5.798;2023-08-24T06:10:12;12.53;;;6.63;;
53871;SDS011;39787;53.174;5.798;2023-08-24T06:11:12;17.67;;;7.27;;
53871;SDS011;39787;53.174;5.798;2023-08-24T06:12:12;13.97;;;6.73;;
53871;SDS011;39787;53.174;5.798;2023-08-24T06:13:13;13.07;;;6.10;;
53871;SDS011;39787;53.174;5.798;2023-08-24T06:14:13;19.13;;;6.80;;